Time;durP1;ratioP1;P1;durP2;ratioP2;P2;SDS_P1;SDS_P2;PMS_P1;PMS_P2;Temp;Humidity;BMP_temperature;BMP_pressure;BME280_temperature;BME280_humidity;BME280_pressure;Samples;Min_cycle;Max_cycle;Signal;HPM_P1;HPM_P2
2022/08/21 00:02:23;;;;;;;11.68;1.90;;;39.60;54.70;;;;;;5048731;28;20051;-58
2022/08/21 00:04:50;;;;;;;21.80;2.03;;;39.70;54.20;;;;;;5050014;28;20084;-58
2022/08/21 00:07:18;;;;;;;6.80;1.65;;;39.70;54.20;;;;;;5066465;28;20058;-59
2022/08/21 00:09:44;;;;;;;12.30;1.83;;;39.60;54.30;;;;;;5050292;28;20047;-58
2022/08/21 00:12:11;;;;;;;10.13;1.83;;;39.60;54.70;;;;;;5050486;28;20059;-58
2022/08/21 00:14:38;;;;;;;13.00;2.28;;;39.60;54.50;;;;;;5048296;28;20046;-58
2022/08/21 00:17:05;;;;;;;16.50;1.67;;;39.60;54.20;;;;;;5048064;28;20053;-59
2022/08/21 00:19:32;;;;;;;15.07;2.20;;;39.30;54.30;;;;;;5050211;28;20066;-58
2022/08/21 00:21:59;;;;;;;20.83;2.03;;;39.30;55.00;;;;;;5046487;28;20048;-59
2022/08/21 00:24:26;;;;;;;17.58;2.00;;;39.20;55.60;;;;;;5049849;28;20075;-58
2022/08/21 00:26:53;;;;;;;17.27;2.05;;;39.20;55.60;;;;;;5052715;28;20062;-58
2022/08/21 00:29:20;;;;;;;13.50;1.80;;;39.00;56.00;;;;;;5049600;28;20136;-58
2022/08/21 00:31:46;;;;;;;24.85;3.47;;;38.90;56.30;;;;;;5049803;28;20042;-59
2022/08/21 00:34:13;;;;;;;27.42;3.33;;;38.80;56.40;;;;;;5066361;28;20557;-58
2022/08/21 00:36:40;;;;;;;18.45;2.20;;;38.70;56.80;;;;;;5050976;28;20046;-58
2022/08/21 00:39:08;;;;;;;19.33;3.42;;;38.60;56.90;;;;;;5049739;28;20087;-62
2022/08/21 00:41:36;;;;;;;27.48;4.07;;;38.60;56.80;;;;;;5051762;28;20424;-58
2022/08/21 00:44:04;;;;;;;10.40;1.80;;;38.40;57.00;;;;;;5049231;28;20041;-59
2022/08/21 00:46:31;;;;;;;13.25;1.95;;;38.40;57.50;;;;;;5049393;28;20070;-58
2022/08/21 00:48:57;;;;;;;11.43;1.80;;;38.20;57.70;;;;;;5049995;28;20081;-59
2022/08/21 00:51:34;;;;;;;17.33;2.00;;;38.20;57.60;;;;;;5049199;28;20599;-57
2022/08/21 00:54:02;;;;;;;15.98;1.77;;;38.00;58.20;;;;;;5049952;28;20097;-58
2022/08/21 00:56:28;;;;;;;20.10;2.30;;;38.00;58.70;;;;;;5050664;28;20045;-59
2022/08/21 00:58:58;;;;;;;16.80;2.20;;;37.90;59.30;;;;;;5050568;28;20038;-56
2022/08/21 01:01:24;;;;;;;55.97;8.77;;;37.80;59.40;;;;;;5049362;28;20046;-56
2022/08/21 01:03:51;;;;;;;54.58;6.65;;;37.70;59.70;;;;;;5050250;28;20047;-56
2022/08/21 01:06:17;;;;;;;17.95;3.13;;;37.70;59.30;;;;;;5050535;28;20063;-58
2022/08/21 01:08:44;;;;;;;31.85;2.22;;;37.60;59.60;;;;;;5049165;28;20135;-55
2022/08/21 01:11:11;;;;;;;12.13;1.70;;;37.40;59.90;;;;;;5065871;28;20063;-57
2022/08/21 01:13:45;;;;;;;31.48;2.50;;;37.40;60.50;;;;;;5052328;28;20046;-59
2022/08/21 01:16:16;;;;;;;19.65;1.85;;;37.30;60.80;;;;;;5044389;28;20075;-57
2022/08/21 01:18:45;;;;;;;21.00;2.40;;;37.10;61.10;;;;;;5050729;28;20074;-58
2022/08/21 01:21:26;;;;;;;30.98;2.70;;;37.00;61.30;;;;;;5050450;28;20052;-60
2022/08/21 01:23:54;;;;;;;15.05;1.80;;;36.90;61.40;;;;;;5051384;28;20446;-56
2022/08/21 01:26:26;;;;;;;12.80;2.00;;;36.70;62.10;;;;;;5051351;28;20055;-58
2022/08/21 01:29:22;;;;;;;16.95;2.05;;;36.60;62.90;;;;;;5049982;28;20128;-54
2022/08/21 01:31:49;;;;;;;21.63;2.40;;;36.60;63.40;;;;;;5048069;28;20055;-59
2022/08/21 01:34:16;;;;;;;28.45;2.72;;;36.50;63.60;;;;;;5065983;28;20065;-57
2022/08/21 01:36:44;;;;;;;23.20;2.65;;;36.40;64.00;;;;;;5064708;28;20085;-55
2022/08/21 01:39:11;;;;;;;24.52;3.05;;;36.30;64.20;;;;;;5048552;28;20207;-56
2022/08/21 01:41:38;;;;;;;28.02;2.63;;;36.30;64.60;;;;;;5048109;28;20059;-58
2022/08/21 01:44:05;;;;;;;12.55;1.83;;;36.20;64.80;;;;;;5046444;28;20150;-60
2022/08/21 01:46:31;;;;;;;19.73;1.98;;;36.10;65.00;;;;;;5046733;28;20074;-58
2022/08/21 01:48:58;;;;;;;16.88;2.45;;;36.00;65.10;;;;;;5047401;28;20149;-59
2022/08/21 01:51:24;;;;;;;30.70;2.80;;;36.00;65.20;;;;;;5047676;28;20408;-60
2022/08/21 01:53:50;;;;;;;17.52;2.78;;;35.90;65.30;;;;;;5049082;28;20478;-58
2022/08/21 01:56:17;;;;;;;20.05;3.53;;;35.80;65.40;;;;;;5064108;28;20105;-59
2022/08/21 01:58:46;;;;;;;21.02;2.10;;;35.80;65.50;;;;;;5047069;28;20072;-58
2022/08/21 02:01:12;;;;;;;15.60;2.17;;;35.80;65.30;;;;;;5048583;28;20097;-58
2022/08/21 02:03:41;;;;;;;15.95;2.30;;;35.70;65.40;;;;;;5047643;28;20083;-57
2022/08/21 02:06:12;;;;;;;7.53;2.03;;;35.60;65.50;;;;;;5045115;28;20074;-59
2022/08/21 02:08:39;;;;;;;15.82;2.17;;;35.50;65.80;;;;;;5046586;28;20091;-58
2022/08/21 02:11:06;;;;;;;12.15;1.85;;;35.50;66.80;;;;;;5045115;28;20137;-59
2022/08/21 02:13:32;;;;;;;26.23;3.10;;;35.50;66.20;;;;;;5047409;28;20073;-56
2022/08/21 02:15:59;;;;;;;12.35;2.05;;;35.50;66.50;;;;;;5045449;28;20484;-60
2022/08/21 02:18:25;;;;;;;15.95;2.10;;;35.40;66.70;;;;;;5044693;28;20637;-58
2022/08/21 02:20:52;;;;;;;23.85;2.50;;;35.40;67.00;;;;;;5062987;28;20557;-59
2022/08/21 02:23:18;;;;;;;15.20;2.42;;;35.30;67.00;;;;;;5046805;28;20084;-61
2022/08/21 02:25:45;;;;;;;21.80;2.35;;;35.30;66.80;;;;;;5047048;28;20428;-58
2022/08/21 02:28:14;;;;;;;18.35;2.88;;;35.20;67.10;;;;;;5063683;28;20136;-59
2022/08/21 02:30:45;;;;;;;11.90;1.75;;;35.20;67.50;;;;;;5047343;28;20150;-58
2022/08/21 02:33:12;;;;;;;15.18;2.92;;;35.20;67.80;;;;;;5047194;28;20078;-59
2022/08/21 02:35:42;;;;;;;28.35;2.58;;;35.10;68.10;;;;;;5047481;28;20956;-59
2022/08/21 02:38:14;;;;;;;23.88;2.58;;;35.10;68.20;;;;;;5064896;28;20090;-59
2022/08/21 02:40:44;;;;;;;12.48;2.00;;;35.00;68.50;;;;;;5047725;28;20474;-59
2022/08/21 02:43:11;;;;;;;12.77;2.63;;;35.00;68.80;;;;;;5047216;28;20474;-59
2022/08/21 02:45:40;;;;;;;17.83;2.17;;;34.90;69.10;;;;;;5047118;28;20071;-58
2022/08/21 02:48:12;;;;;;;9.02;2.10;;;35.00;69.40;;;;;;5047362;28;20146;-57
2022/08/21 02:50:44;;;;;;;12.65;1.95;;;35.10;69.70;;;;;;5064690;28;20074;-51
2022/08/21 02:53:16;;;;;;;13.63;2.28;;;35.30;69.10;;;;;;5045766;28;20062;-51
2022/08/21 02:55:46;;;;;;;17.40;2.58;;;35.40;69.10;;;;;;5046260;28;20560;-58
2022/08/21 02:58:13;;;;;;;12.00;1.92;;;35.50;68.70;;;;;;5045234;28;20070;-53
2022/08/21 03:00:40;;;;;;;14.85;2.58;;;35.50;68.70;;;;;;5047351;28;20173;-56
2022/08/21 03:03:07;;;;;;;19.60;3.00;;;35.50;68.90;;;;;;5048615;28;20072;-53
2022/08/21 03:05:36;;;;;;;16.50;2.83;;;35.40;68.90;;;;;;5050514;28;20075;-53
2022/08/21 03:08:09;;;;;;;11.85;2.20;;;35.40;69.40;;;;;;5051149;28;21038;-55
2022/08/21 03:10:37;;;;;;;27.92;2.65;;;35.40;69.50;;;;;;5056746;28;20072;-54
2022/08/21 03:13:04;;;;;;;27.35;2.67;;;35.30;69.40;;;;;;5045665;28;20545;-56
2022/08/21 03:15:30;;;;;;;20.00;3.40;;;35.30;69.40;;;;;;5045426;28;20087;-57
2022/08/21 03:17:57;;;;;;;17.85;2.78;;;35.40;69.30;;;;;;5062825;28;20128;-56
2022/08/21 03:20:25;;;;;;;26.45;2.53;;;35.40;69.40;;;;;;5046774;28;20066;-50
2022/08/21 03:22:54;;;;;;;22.10;3.17;;;35.30;69.60;;;;;;5047457;28;20085;-55
2022/08/21 03:25:22;;;;;;;23.25;3.13;;;35.30;69.90;;;;;;5048376;28;20062;-55
2022/08/21 03:27:49;;;;;;;20.08;3.42;;;35.20;70.10;;;;;;5047146;28;20702;-58
2022/08/21 03:30:17;;;;;;;22.95;2.85;;;35.10;70.30;;;;;;5049198;28;20064;-57
2022/08/21 03:32:43;;;;;;;24.70;4.07;;;35.00;70.60;;;;;;5052710;28;20581;-53
2022/08/21 03:35:10;;;;;;;15.52;4.53;;;34.90;70.70;;;;;;5047080;28;20070;-54
2022/08/21 03:37:37;;;;;;;19.40;3.85;;;34.90;71.30;;;;;;5045168;28;20082;-58
2022/08/21 03:40:06;;;;;;;18.27;3.55;;;34.80;70.70;;;;;;5067062;28;20154;-57
2022/08/21 03:42:32;;;;;;;19.02;3.58;;;34.80;71.40;;;;;;5050852;28;20071;-56
2022/08/21 03:44:58;;;;;;;15.15;3.90;;;34.70;71.40;;;;;;5050757;28;20128;-52
2022/08/21 03:47:25;;;;;;;22.52;4.82;;;34.60;71.60;;;;;;5055377;28;20551;-55
2022/08/21 03:49:52;;;;;;;24.23;5.60;;;34.50;71.90;;;;;;5055529;28;20116;-53
2022/08/21 03:52:18;;;;;;;23.88;5.50;;;34.40;72.30;;;;;;5066304;28;20096;-57
2022/08/21 03:54:46;;;;;;;23.55;5.03;;;34.40;72.70;;;;;;5050630;28;20421;-57
2022/08/21 03:57:12;;;;;;;20.95;5.55;;;34.20;73.20;;;;;;5050753;28;20557;-59
2022/08/21 03:59:39;;;;;;;22.88;4.65;;;34.20;74.40;;;;;;5051299;28;20083;-58
2022/08/21 04:02:07;;;;;;;19.67;5.07;;;34.10;74.00;;;;;;5051015;28;20879;-60
2022/08/21 04:04:34;;;;;;;22.70;6.93;;;34.00;73.90;;;;;;5049413;28;20102;-54
2022/08/21 04:07:02;;;;;;;29.98;7.60;;;34.00;74.00;;;;;;5051993;28;20085;-54
2022/08/21 04:09:29;;;;;;;35.05;8.02;;;34.00;73.90;;;;;;5050600;28;20073;-56
2022/08/21 04:11:56;;;;;;;24.52;8.77;;;33.90;73.80;;;;;;5050418;28;20063;-55
2022/08/21 04:14:23;;;;;;;28.50;7.85;;;33.90;74.10;;;;;;5036907;28;20071;-55
2022/08/21 04:16:49;;;;;;;22.90;6.30;;;33.90;74.10;;;;;;5066520;28;20067;-54
2022/08/21 04:19:16;;;;;;;26.20;7.65;;;33.80;74.30;;;;;;5044693;28;20158;-54
2022/08/21 04:21:42;;;;;;;25.45;6.43;;;33.80;74.70;;;;;;5049869;28;20065;-56
2022/08/21 04:24:10;;;;;;;20.20;5.93;;;33.80;75.00;;;;;;5065870;28;20460;-51
2022/08/21 04:26:39;;;;;;;21.92;6.15;;;33.80;75.60;;;;;;5051090;28;20563;-56
2022/08/21 04:29:08;;;;;;;20.90;5.03;;;33.70;76.20;;;;;;5050437;28;20494;-54
2022/08/21 04:31:39;;;;;;;18.17;7.13;;;33.60;77.10;;;;;;5051488;28;20067;-54
2022/08/21 04:34:06;;;;;;;21.52;8.43;;;33.60;77.50;;;;;;5048092;28;20068;-55
2022/08/21 04:36:33;;;;;;;26.48;9.65;;;33.60;77.90;;;;;;5048745;28;20067;-53
2022/08/21 04:39:00;;;;;;;27.88;9.45;;;33.60;78.10;;;;;;5049103;28;20564;-56
2022/08/21 04:41:27;;;;;;;22.27;7.68;;;33.60;78.70;;;;;;5050553;28;20507;-55
2022/08/21 04:43:55;;;;;;;29.90;7.50;;;33.50;79.50;;;;;;5049245;28;20594;-57
2022/08/21 04:46:22;;;;;;;20.45;7.18;;;33.50;79.80;;;;;;5048804;28;20449;-60
2022/08/21 04:48:48;;;;;;;22.08;7.45;;;33.40;80.10;;;;;;5049708;28;20127;-53
2022/08/21 04:51:37;;;;;;;31.60;9.55;;;33.40;81.00;;;;;;5064777;28;20073;-56
2022/08/21 04:54:29;;;;;;;30.13;10.45;;;33.40;81.70;;;;;;5047430;28;20069;-55
2022/08/21 04:57:05;;;;;;;32.83;9.77;;;33.30;82.20;;;;;;5030565;28;20073;-56
2022/08/21 04:59:36;;;;;;;34.72;11.13;;;33.30;82.60;;;;;;5065815;28;20081;-56
2022/08/21 05:02:05;;;;;;;27.50;7.70;;;33.30;83.50;;;;;;5016022;28;20127;-58
2022/08/21 05:04:34;;;;;;;16.98;4.93;;;33.20;84.30;;;;;;5049714;28;20090;-57
2022/08/21 05:07:05;;;;;;;20.30;3.53;;;33.10;85.00;;;;;;5049856;28;20178;-55
2022/08/21 05:09:33;;;;;;;21.70;3.55;;;33.10;85.30;;;;;;5049327;28;20421;-61
2022/08/21 05:12:02;;;;;;;19.05;4.00;;;33.10;85.80;;;;;;5050245;28;20069;-51
2022/08/21 05:14:28;;;;;;;23.85;5.18;;;33.10;86.00;;;;;;5055154;28;20160;-56
2022/08/21 05:16:55;;;;;;;23.00;5.78;;;33.00;86.30;;;;;;5049628;28;20238;-55
2022/08/21 05:19:21;;;;;;;16.35;4.90;;;32.90;86.90;;;;;;5062531;28;20076;-53
2022/08/21 05:21:48;;;;;;;20.52;5.78;;;32.90;87.20;;;;;;5064497;28;20472;-52
2022/08/21 05:24:15;;;;;;;23.88;6.00;;;32.90;87.50;;;;;;5064965;28;20097;-50
2022/08/21 05:26:42;;;;;;;16.80;5.47;;;32.90;87.70;;;;;;5048565;28;20070;-54
2022/08/21 05:29:08;;;;;;;18.98;5.63;;;32.80;87.70;;;;;;5049187;28;20081;-49
2022/08/21 05:31:35;;;;;;;20.80;5.15;;;32.80;88.10;;;;;;5048806;28;20109;-55
2022/08/21 05:34:01;;;;;;;19.20;5.10;;;32.80;88.30;;;;;;5065112;28;20524;-57
2022/08/21 05:36:28;;;;;;;12.82;4.20;;;32.80;88.50;;;;;;5049935;28;20075;-58
2022/08/21 05:38:54;;;;;;;16.02;4.18;;;32.80;88.50;;;;;;5048236;28;21727;-56
2022/08/21 05:41:21;;;;;;;20.88;3.78;;;32.70;88.60;;;;;;5064576;28;20153;-58
2022/08/21 05:43:47;;;;;;;19.85;3.55;;;32.70;88.80;;;;;;5048117;28;20071;-51
2022/08/21 05:46:14;;;;;;;9.68;3.13;;;32.80;89.00;;;;;;5048454;28;20068;-56
2022/08/21 05:48:40;;;;;;;21.17;3.35;;;32.70;88.70;;;;;;5049395;28;20103;-52
2022/08/21 05:51:11;;;;;;;12.48;2.67;;;32.60;88.80;;;;;;5049094;28;20089;-51
2022/08/21 05:53:38;;;;;;;19.67;3.55;;;32.60;89.30;;;;;;5048948;28;20415;-53
2022/08/21 05:56:06;;;;;;;20.35;5.07;;;32.50;89.10;;;;;;5046132;28;20146;-56
2022/08/21 05:58:33;;;;;;;15.55;5.03;;;32.50;89.30;;;;;;5046504;28;20075;-56
2022/08/21 06:01:02;;;;;;;18.58;5.97;;;32.50;89.80;;;;;;5048831;28;20068;-53
2022/08/21 06:03:33;;;;;;;23.15;5.88;;;32.50;89.90;;;;;;5064304;28;20090;-56
2022/08/21 06:06:01;;;;;;;18.17;5.10;;;32.50;90.10;;;;;;5047807;28;20166;-57
2022/08/21 06:08:28;;;;;;;17.05;3.47;;;32.40;90.20;;;;;;5048482;28;20098;-56
2022/08/21 06:10:58;;;;;;;16.38;2.85;;;32.40;90.40;;;;;;5047867;28;20112;-57
2022/08/21 06:13:25;;;;;;;16.80;3.75;;;32.40;90.80;;;;;;5038003;28;20525;-50
2022/08/21 06:16:05;;;;;;;15.00;3.28;;;32.30;91.20;;;;;;5048438;28;20083;-55
2022/08/21 06:18:32;;;;;;;10.82;3.10;;;32.30;91.60;;;;;;5048711;28;20093;-55
2022/08/21 06:20:59;;;;;;;15.15;3.58;;;32.30;91.90;;;;;;5045489;28;20434;-53
2022/08/21 06:23:25;;;;;;;22.00;3.90;;;32.30;92.10;;;;;;5064322;28;20122;-57
2022/08/21 06:25:51;;;;;;;15.75;3.78;;;32.20;92.40;;;;;;5047741;28;20073;-56
2022/08/21 06:28:18;;;;;;;16.73;3.58;;;32.10;92.80;;;;;;5047497;28;20166;-50
2022/08/21 06:30:44;;;;;;;19.48;4.10;;;32.20;93.20;;;;;;5048719;28;20147;-57
2022/08/21 06:33:11;;;;;;;13.95;3.92;;;32.10;93.30;;;;;;5047723;28;20884;-52
2022/08/21 06:35:38;;;;;;;19.60;4.20;;;32.10;93.50;;;;;;5048503;28;20171;-55
2022/08/21 06:38:04;;;;;;;18.83;4.43;;;32.10;93.70;;;;;;5048791;28;20090;-54
2022/08/21 06:40:31;;;;;;;13.88;4.00;;;32.00;93.80;;;;;;5049528;28;20593;-54
2022/08/21 06:43:07;;;;;;;14.63;5.47;;;32.00;94.00;;;;;;5048658;28;20096;-55
2022/08/21 06:45:33;;;;;;;14.98;5.50;;;32.00;94.20;;;;;;5047645;28;20130;-51
2022/08/21 06:48:00;;;;;;;16.83;5.70;;;31.90;94.30;;;;;;5048160;28;20118;-54
2022/08/21 06:50:26;;;;;;;17.98;4.70;;;31.80;94.60;;;;;;5047570;28;21511;-55
2022/08/21 06:53:06;;;;;;;15.63;4.80;;;31.80;94.80;;;;;;5048408;28;20068;-53
2022/08/21 06:55:33;;;;;;;15.98;4.78;;;31.80;95.00;;;;;;5047350;28;20488;-56
2022/08/21 06:57:59;;;;;;;26.52;6.00;;;31.80;95.10;;;;;;5047633;28;20078;-53
2022/08/21 07:00:26;;;;;;;23.98;6.15;;;31.80;95.20;;;;;;5063061;28;20511;-55
2022/08/21 07:02:53;;;;;;;18.70;5.15;;;31.70;95.40;;;;;;5049025;28;20672;-53
2022/08/21 07:05:19;;;;;;;21.08;4.55;;;31.80;95.60;;;;;;5064271;28;20597;-57
2022/08/21 07:07:47;;;;;;;14.98;3.88;;;31.60;95.80;;;;;;5049049;28;20096;-53
2022/08/21 07:10:15;;;;;;;19.40;4.57;;;31.60;96.10;;;;;;5047551;28;20523;-55
2022/08/21 07:12:41;;;;;;;16.52;4.72;;;31.60;96.40;;;;;;5048481;28;20079;-56
2022/08/21 07:15:08;;;;;;;14.57;3.95;;;31.60;96.50;;;;;;5051442;28;20096;-57
2022/08/21 07:17:35;;;;;;;15.90;4.32;;;31.60;96.80;;;;;;5051031;28;20099;-52
2022/08/21 07:20:02;;;;;;;17.63;4.53;;;31.60;97.00;;;;;;5051319;28;20073;-52
2022/08/21 07:22:29;;;;;;;17.52;3.95;;;31.50;97.20;;;;;;5049849;28;20080;-52
2022/08/21 07:24:55;;;;;;;20.33;4.20;;;31.50;97.40;;;;;;5066730;28;20075;-57
2022/08/21 07:27:22;;;;;;;16.73;4.22;;;31.40;97.60;;;;;;5066685;28;20089;-54
2022/08/21 07:29:48;;;;;;;17.70;4.28;;;31.40;97.90;;;;;;5067263;28;20076;-55
2022/08/21 07:32:15;;;;;;;12.85;3.55;;;31.40;98.00;;;;;;5055505;28;20522;-52
2022/08/21 07:34:42;;;;;;;20.45;4.35;;;31.40;98.10;;;;;;5067404;28;20103;-52
2022/08/21 07:37:09;;;;;;;18.25;3.97;;;31.40;98.10;;;;;;5051311;28;20614;-56
2022/08/21 07:39:35;;;;;;;15.23;3.75;;;31.40;98.30;;;;;;5052303;28;20207;-56
2022/08/21 07:42:03;;;;;;;13.40;3.65;;;31.40;98.30;;;;;;5052383;28;20538;-54
2022/08/21 07:44:34;;;;;;;19.55;3.83;;;31.30;98.70;;;;;;5050693;28;20084;-51
2022/08/21 07:47:01;;;;;;;14.45;3.58;;;31.30;98.90;;;;;;5065783;28;20067;-52
2022/08/21 07:49:28;;;;;;;15.73;3.72;;;31.30;99.00;;;;;;5052030;28;20610;-57
2022/08/21 07:51:54;;;;;;;20.38;3.85;;;31.30;99.30;;;;;;5052025;28;20434;-54
2022/08/21 07:54:21;;;;;;;15.88;3.97;;;31.20;99.40;;;;;;5050979;28;20102;-55
2022/08/21 07:56:47;;;;;;;18.40;4.13;;;31.20;99.60;;;;;;5050923;28;20072;-54
2022/08/21 07:59:14;;;;;;;19.25;4.05;;;31.20;99.80;;;;;;5049523;28;20071;-53
2022/08/21 08:01:41;;;;;;;14.43;3.50;;;31.10;99.90;;;;;;5049470;28;20069;-52
2022/08/21 08:04:07;;;;;;;16.98;4.03;;;31.10;99.90;;;;;;5050398;28;20442;-51
2022/08/21 08:06:34;;;;;;;11.43;3.80;;;31.10;99.90;;;;;;5049989;28;20154;-55
2022/08/21 08:09:03;;;;;;;12.90;4.10;;;31.10;99.90;;;;;;5051127;28;20092;-55
2022/08/21 08:11:30;;;;;;;17.20;3.75;;;31.10;99.90;;;;;;5048979;28;20073;-53
2022/08/21 08:13:57;;;;;;;12.35;3.65;;;31.10;99.90;;;;;;5056958;28;20065;-57
2022/08/21 08:16:24;;;;;;;17.55;3.90;;;31.10;99.90;;;;;;5051664;28;20644;-53
2022/08/21 08:18:51;;;;;;;18.48;4.15;;;31.00;99.90;;;;;;5051105;28;20181;-54
2022/08/21 08:21:20;;;;;;;13.13;3.55;;;31.00;99.90;;;;;;5066427;28;20072;-54
2022/08/21 08:23:47;;;;;;;21.73;4.78;;;31.00;99.90;;;;;;5049326;28;20159;-52
2022/08/21 08:26:15;;;;;;;14.48;3.90;;;31.00;99.90;;;;;;5050188;28;20580;-57
2022/08/21 08:28:42;;;;;;;15.88;4.82;;;30.90;99.90;;;;;;5051312;28;20095;-52
2022/08/21 08:31:09;;;;;;;12.73;3.83;;;30.90;99.90;;;;;;5050499;28;20647;-58
2022/08/21 08:33:36;;;;;;;19.35;4.40;;;30.90;99.90;;;;;;5048514;28;20072;-53
2022/08/21 08:36:03;;;;;;;20.15;4.10;;;30.90;99.90;;;;;;5051385;28;20072;-56
2022/08/21 08:38:29;;;;;;;17.52;4.30;;;30.90;99.90;;;;;;5047983;28;20534;-54
2022/08/21 08:41:12;;;;;;;18.63;4.13;;;30.90;99.90;;;;;;5049830;28;20499;-53
2022/08/21 08:43:42;;;;;;;18.75;4.03;;;30.90;99.90;;;;;;5049820;28;20142;-52
2022/08/21 08:46:15;;;;;;;14.50;4.13;;;30.90;99.90;;;;;;5050557;28;20210;-51
2022/08/21 08:48:54;;;;;;;15.63;3.90;;;30.90;99.90;;;;;;5051891;28;20088;-54
2022/08/21 08:51:44;;;;;;;17.80;4.43;;;30.80;99.90;;;;;;5050158;28;20076;-54
2022/08/21 08:54:25;;;;;;;14.57;3.70;;;30.80;99.90;;;;;;5051426;28;20422;-54
2022/08/21 08:56:54;;;;;;;16.40;3.72;;;30.70;99.90;;;;;;5066450;28;20075;-55
2022/08/21 08:59:26;;;;;;;15.25;3.78;;;30.80;99.90;;;;;;5048415;28;20635;-50
2022/08/21 09:01:53;;;;;;;14.45;4.18;;;30.80;99.90;;;;;;5049632;28;20219;-55
2022/08/21 09:04:25;;;;;;;13.65;3.70;;;30.80;99.90;;;;;;5066460;28;20171;-58
2022/08/21 09:07:25;;;;;;;14.38;3.83;;;30.80;99.90;;;;;;5049259;28;20076;-55
2022/08/21 09:10:04;;;;;;;12.48;3.67;;;30.80;99.90;;;;;;5049423;28;20135;-50
2022/08/21 09:12:37;;;;;;;12.73;3.80;;;30.80;99.90;;;;;;5051962;28;20074;-49
2022/08/21 09:15:12;;;;;;;17.83;4.57;;;30.80;99.90;;;;;;5049234;28;20164;-54
2022/08/21 09:18:10;;;;;;;13.90;3.85;;;30.70;99.90;;;;;;5049137;28;20094;-56
2022/08/21 09:20:45;;;;;;;12.90;3.63;;;30.70;99.90;;;;;;5048520;28;20111;-55
2022/08/21 09:23:23;;;;;;;12.60;4.20;;;30.70;99.90;;;;;;5047266;28;20187;-54
2022/08/21 09:26:05;;;;;;;16.40;3.90;;;30.60;99.90;;;;;;5048029;28;20072;-55
2022/08/21 09:28:36;;;;;;;17.42;3.97;;;30.70;99.90;;;;;;5049065;28;20096;-52
2022/08/21 09:31:27;;;;;;;13.15;3.70;;;30.60;99.90;;;;;;5049098;28;20742;-51
2022/08/21 09:34:11;;;;;;;14.23;3.67;;;30.70;99.90;;;;;;5047470;28;20154;-55
2022/08/21 09:36:47;;;;;;;11.05;3.70;;;30.60;99.90;;;;;;5048545;28;20115;-55
2022/08/21 09:39:24;;;;;;;16.23;4.40;;;30.60;99.90;;;;;;5048917;28;20147;-51
2022/08/21 09:42:04;;;;;;;15.25;4.43;;;30.60;99.90;;;;;;5066138;28;20437;-53
2022/08/21 09:44:42;;;;;;;14.27;4.65;;;30.60;99.90;;;;;;5049840;28;20076;-51
2022/08/21 09:47:12;;;;;;;15.70;4.97;;;30.60;99.90;;;;;;5047552;28;20104;-53
2022/08/21 09:49:41;;;;;;;16.88;5.00;;;30.50;99.90;;;;;;5048911;28;20099;-57
2022/08/21 09:52:21;;;;;;;16.40;5.80;;;30.50;99.90;;;;;;5047693;28;20076;-56
2022/08/21 09:54:54;;;;;;;16.75;6.07;;;30.60;99.90;;;;;;5047433;28;20076;-56
2022/08/21 09:57:39;;;;;;;21.42;6.75;;;30.50;99.90;;;;;;5064898;28;20501;-55
2022/08/21 10:00:31;;;;;;;26.65;7.40;;;30.50;99.90;;;;;;5030863;28;20079;-55
2022/08/21 10:03:19;;;;;;;24.58;7.45;;;30.50;99.90;;;;;;5039310;28;20084;-57
2022/08/21 10:05:57;;;;;;;21.50;7.35;;;30.50;99.90;;;;;;5047772;28;20515;-54
2022/08/21 10:08:26;;;;;;;19.05;7.40;;;30.50;99.90;;;;;;5048892;28;20086;-50
2022/08/21 10:11:07;;;;;;;20.92;7.25;;;30.50;99.90;;;;;;5064321;28;20076;-52
2022/08/21 10:13:54;;;;;;;26.45;7.47;;;30.40;99.90;;;;;;5051938;28;20078;-55
2022/08/21 10:16:30;;;;;;;27.40;8.68;;;30.40;99.90;;;;;;5032236;28;20080;-56
2022/08/21 10:19:00;;;;;;;28.02;9.13;;;30.40;99.90;;;;;;5048044;28;20087;-54
2022/08/21 10:21:59;;;;;;;18.60;7.05;;;30.40;99.90;;;;;;5048366;28;20080;-56
2022/08/21 10:24:32;;;;;;;18.77;5.60;;;30.40;99.90;;;;;;5043870;28;20521;-55
2022/08/21 10:27:04;;;;;;;16.10;4.90;;;30.30;99.90;;;;;;5061605;28;20218;-54
2022/08/21 10:29:55;;;;;;;17.83;4.38;;;30.30;99.90;;;;;;5050057;28;20072;-53
2022/08/21 10:32:47;;;;;;;17.00;4.70;;;30.30;99.90;;;;;;5031009;28;20072;-55
2022/08/21 10:35:21;;;;;;;18.42;5.22;;;30.30;99.90;;;;;;5047051;28;20188;-56
2022/08/21 10:38:29;;;;;;;17.67;5.40;;;30.30;99.90;;;;;;5047131;28;20119;-57
2022/08/21 10:41:18;;;;;;;17.40;5.60;;;30.30;99.90;;;;;;5045201;28;20113;-51
2022/08/21 10:43:52;;;;;;;17.85;6.25;;;30.30;99.90;;;;;;5047275;28;20146;-53
2022/08/21 10:46:47;;;;;;;22.73;5.63;;;30.30;99.90;;;;;;5046619;28;20079;-59
2022/08/21 10:49:48;;;;;;;18.08;5.80;;;30.20;99.90;;;;;;5046534;28;20091;-52
2022/08/21 10:52:36;;;;;;;17.67;5.88;;;30.20;99.90;;;;;;5047227;28;20073;-55
2022/08/21 10:55:24;;;;;;;18.05;5.82;;;30.20;99.90;;;;;;5048766;28;20438;-55
2022/08/21 10:58:30;;;;;;;27.00;8.05;;;30.20;99.90;;;;;;5047263;28;20605;-55
2022/08/21 11:01:09;;;;;;;20.75;6.47;;;30.20;99.90;;;;;;5046293;28;20092;-56
2022/08/21 11:03:45;;;;;;;14.77;5.10;;;30.20;99.90;;;;;;5047609;28;20068;-57
2022/08/21 11:06:26;;;;;;;15.25;6.13;;;30.30;99.90;;;;;;5047745;28;20084;-54
2022/08/21 11:09:07;;;;;;;17.20;4.93;;;30.30;99.90;;;;;;5055733;28;20104;-58
2022/08/21 11:11:48;;;;;;;16.88;4.72;;;30.20;99.90;;;;;;5055389;28;20199;-54
2022/08/21 11:14:59;;;;;;;11.90;4.00;;;30.30;99.90;;;;;;5046946;28;20584;-57
2022/08/21 11:17:45;;;;;;;12.30;4.38;;;30.20;99.90;;;;;;5047948;28;20104;-56
2022/08/21 11:20:40;;;;;;;15.30;4.80;;;30.20;99.90;;;;;;5048702;28;20072;-53
2022/08/21 11:23:24;;;;;;;18.63;6.07;;;30.20;99.90;;;;;;5029470;28;20486;-54
2022/08/21 11:26:02;;;;;;;16.27;5.10;;;30.20;99.90;;;;;;5044642;28;20076;-49
2022/08/21 11:28:37;;;;;;;16.40;5.50;;;30.20;99.90;;;;;;5059251;28;20178;-53
2022/08/21 11:31:25;;;;;;;15.07;5.47;;;30.20;99.90;;;;;;5047339;28;20071;-55
2022/08/21 11:34:30;;;;;;;23.70;8.38;;;30.20;99.90;;;;;;5048822;28;20077;-55
2022/08/21 11:37:12;;;;;;;23.73;8.70;;;30.20;99.90;;;;;;5046996;28;20387;-55
2022/08/21 11:39:52;;;;;;;23.50;8.48;;;30.20;99.90;;;;;;5048817;28;20104;-52
2022/08/21 11:42:58;;;;;;;19.13;8.55;;;30.20;99.90;;;;;;5047306;28;20075;-55
2022/08/21 11:45:43;;;;;;;21.27;7.15;;;30.20;99.90;;;;;;5060572;28;20068;-54
2022/08/21 11:48:19;;;;;;;18.77;6.45;;;30.20;99.90;;;;;;5045800;28;20110;-52
2022/08/21 11:50:46;;;;;;;15.80;4.60;;;30.20;99.90;;;;;;5047475;28;20100;-55
2022/08/21 11:53:22;;;;;;;16.77;4.57;;;30.20;99.90;;;;;;5064153;28;20328;-55
2022/08/21 11:56:00;;;;;;;15.80;4.47;;;30.20;99.90;;;;;;5048099;28;20089;-53
2022/08/21 11:58:38;;;;;;;15.18;4.47;;;30.20;99.90;;;;;;5047513;28;20145;-51
2022/08/21 12:01:10;;;;;;;15.95;4.50;;;30.30;99.90;;;;;;5050368;28;20099;-56
2022/08/21 12:03:42;;;;;;;11.57;3.72;;;30.30;99.90;;;;;;5049056;28;20477;-51
2022/08/21 12:06:10;;;;;;;11.35;3.80;;;30.30;99.90;;;;;;5049853;28;20084;-55
2022/08/21 12:08:42;;;;;;;13.55;3.58;;;30.30;99.90;;;;;;5050854;28;20149;-57
2022/08/21 12:11:16;;;;;;;14.60;4.65;;;30.30;99.90;;;;;;5050506;28;20522;-57
2022/08/21 12:14:11;;;;;;;14.18;3.53;;;30.20;99.90;;;;;;5062419;28;20538;-55
2022/08/21 12:16:43;;;;;;;14.60;3.67;;;30.20;99.90;;;;;;5032216;28;20069;-56
2022/08/21 12:19:20;;;;;;;15.00;4.53;;;30.20;99.90;;;;;;5051056;28;20108;-57
2022/08/21 12:22:11;;;;;;;12.38;3.63;;;30.20;99.90;;;;;;5050498;28;20727;-55
2022/08/21 12:24:58;;;;;;;9.85;3.53;;;30.20;99.90;;;;;;5065428;28;20076;-56
2022/08/21 12:27:40;;;;;;;9.95;3.60;;;30.20;99.90;;;;;;5047241;28;20635;-55
2022/08/21 12:30:34;;;;;;;14.38;3.83;;;30.20;99.90;;;;;;5049609;28;20155;-55
2022/08/21 12:33:05;;;;;;;12.73;3.72;;;30.20;99.90;;;;;;5050373;28;20421;-57
2022/08/21 12:35:39;;;;;;;11.98;4.13;;;30.20;99.90;;;;;;5050125;28;20412;-55
2022/08/21 12:38:16;;;;;;;13.30;3.80;;;30.20;99.90;;;;;;5048281;28;20073;-54
2022/08/21 12:40:53;;;;;;;10.05;3.50;;;30.20;99.90;;;;;;5050347;28;20423;-54
2022/08/21 12:43:34;;;;;;;11.00;3.05;;;30.20;99.90;;;;;;5050560;28;20088;-55
2022/08/21 12:46:03;;;;;;;12.20;3.70;;;30.20;99.90;;;;;;5048083;28;20099;-52
2022/08/21 12:48:38;;;;;;;8.65;3.38;;;30.20;99.90;;;;;;5033303;28;20100;-54
2022/08/21 12:51:12;;;;;;;16.52;4.88;;;30.10;99.90;;;;;;5066673;28;20125;-53
2022/08/21 12:53:50;;;;;;;13.38;3.72;;;30.10;99.90;;;;;;5049666;28;20552;-51
2022/08/21 12:56:19;;;;;;;12.75;4.57;;;30.00;99.90;;;;;;5050266;28;20107;-56
2022/08/21 12:58:52;;;;;;;13.60;3.95;;;29.90;99.90;;;;;;5049488;28;20122;-55
2022/08/21 13:01:49;;;;;;;14.85;4.20;;;29.90;99.90;;;;;;5048993;28;20084;-55
2022/08/21 13:04:31;;;;;;;;;;;29.90;99.90;;;;;;5028027;28;20510;-54